Time;durP1;ratioP1;P1;durP2;ratioP2;P2;SDS_P1;SDS_P2;PMS_P1;PMS_P2;Temp;Humidity;BMP_temperature;BMP_pressure;BME280_temperature;BME280_humidity;BME280_pressure;Samples;Min_cycle;Max_cycle;Signal;HPM_P1;HPM_P2
2023/02/19 00:01:03;;;;;;;19.90;2.97;;;10.00;99.90;;;;;;4996737;28;20038;-72
2023/02/19 00:03:28;;;;;;;16.38;2.80;;;10.00;99.90;;;;;;4997364;28;20476;-73
2023/02/19 00:05:54;;;;;;;11.77;2.55;;;9.90;99.90;;;;;;4995304;28;20035;-73
2023/02/19 00:08:19;;;;;;;10.90;3.05;;;9.90;99.90;;;;;;4993213;28;20042;-73
2023/02/19 00:10:45;;;;;;;17.90;4.03;;;9.90;99.90;;;;;;4991032;28;20128;-73
2023/02/19 00:13:12;;;;;;;7.47;2.40;;;9.90;99.90;;;;;;4997800;28;20074;-72
2023/02/19 00:15:37;;;;;;;14.35;2.95;;;9.90;99.90;;;;;;4999144;28;20049;-73
2023/02/19 00:18:03;;;;;;;8.30;2.60;;;9.90;99.90;;;;;;4996428;28;20038;-72
2023/02/19 00:20:28;;;;;;;15.98;2.67;;;9.90;99.90;;;;;;4972329;28;20035;-72
2023/02/19 00:22:54;;;;;;;10.63;2.60;;;9.90;99.90;;;;;;4992877;28;20133;-73
2023/02/19 00:25:19;;;;;;;16.50;2.90;;;9.90;99.90;;;;;;4992050;28;20042;-72
2023/02/19 00:27:45;;;;;;;11.65;3.05;;;9.90;99.90;;;;;;4994704;28;20030;-72
2023/02/19 00:30:11;;;;;;;13.75;3.50;;;9.90;99.90;;;;;;5008745;28;20042;-72
2023/02/19 00:32:36;;;;;;;26.00;3.75;;;9.90;99.90;;;;;;4999235;28;20054;-73
2023/02/19 00:35:03;;;;;;;15.27;2.80;;;9.90;99.90;;;;;;5002873;28;20030;-72
2023/02/19 00:37:29;;;;;;;15.30;3.80;;;9.90;99.90;;;;;;4981660;28;20030;-73
2023/02/19 00:39:57;;;;;;;12.75;3.28;;;9.90;99.90;;;;;;4997858;28;20085;-73
2023/02/19 00:42:24;;;;;;;18.33;3.63;;;9.90;99.90;;;;;;5001725;28;20060;-73
2023/02/19 00:44:50;;;;;;;17.95;3.55;;;9.90;99.90;;;;;;4977524;28;20034;-74
2023/02/19 00:47:15;;;;;;;16.48;2.92;;;9.90;99.90;;;;;;5001466;28;20458;-72
2023/02/19 00:49:41;;;;;;;14.73;3.60;;;9.90;99.90;;;;;;4974677;28;20038;-73
2023/02/19 00:52:06;;;;;;;13.20;3.63;;;9.90;99.90;;;;;;4977494;28;20070;-72
2023/02/19 00:54:32;;;;;;;15.20;3.45;;;9.90;99.90;;;;;;4994722;28;20034;-73
2023/02/19 00:56:57;;;;;;;11.60;2.00;;;9.90;99.90;;;;;;4995731;28;20512;-72
2023/02/19 00:59:23;;;;;;;17.63;2.70;;;9.90;99.90;;;;;;4998193;28;20065;-73
2023/02/19 01:01:50;;;;;;;26.80;4.95;;;9.90;99.90;;;;;;4989042;28;20042;-72
2023/02/19 01:04:16;;;;;;;7.50;2.00;;;9.90;99.90;;;;;;4994900;28;20038;-72
2023/02/19 01:06:41;;;;;;;8.13;1.40;;;10.00;99.90;;;;;;4976919;28;20039;-73
2023/02/19 01:09:07;;;;;;;9.02;1.67;;;10.00;99.90;;;;;;4995688;28;20045;-72
2023/02/19 01:11:34;;;;;;;6.32;1.40;;;10.00;99.90;;;;;;4987213;28;20041;-72
2023/02/19 01:14:00;;;;;;;10.07;1.98;;;10.00;99.90;;;;;;4971358;28;20030;-72
2023/02/19 01:16:26;;;;;;;11.38;1.85;;;9.90;99.90;;;;;;4988805;28;20113;-73
2023/02/19 01:18:53;;;;;;;12.65;2.90;;;10.00;99.90;;;;;;4988570;28;20125;-72
2023/02/19 01:21:21;;;;;;;11.40;1.55;;;10.00;99.90;;;;;;4997397;28;20046;-72
2023/02/19 01:23:48;;;;;;;10.30;2.10;;;10.10;99.90;;;;;;4987250;28;20093;-73
2023/02/19 01:26:17;;;;;;;10.20;1.95;;;10.00;99.90;;;;;;4995174;28;20034;-73
2023/02/19 01:28:43;;;;;;;7.15;1.45;;;10.00;99.90;;;;;;4996255;28;20121;-75
2023/02/19 01:31:12;;;;;;;4.57;1.80;;;10.00;99.90;;;;;;4988789;28;20049;-72
2023/02/19 01:33:38;;;;;;;9.13;2.03;;;10.00;99.90;;;;;;4988948;28;20117;-72
2023/02/19 01:36:04;;;;;;;11.70;1.50;;;9.90;99.90;;;;;;4997237;28;20124;-72
2023/02/19 01:38:30;;;;;;;9.73;1.30;;;9.90;99.90;;;;;;4972957;28;20035;-73
2023/02/19 01:40:59;;;;;;;8.45;2.15;;;9.90;99.90;;;;;;4992982;28;20384;-73
2023/02/19 01:43:25;;;;;;;13.50;2.20;;;9.90;99.90;;;;;;4990675;28;20170;-73
2023/02/19 01:45:51;;;;;;;6.63;1.45;;;9.90;99.90;;;;;;4990127;28;20067;-73
2023/02/19 01:48:22;;;;;;;9.80;1.92;;;9.90;99.90;;;;;;4988481;28;20105;-72
2023/02/19 01:50:56;;;;;;;8.63;1.90;;;9.80;99.90;;;;;;4989230;28;20461;-72
2023/02/19 01:53:25;;;;;;;12.55;1.58;;;9.90;99.90;;;;;;4990934;28;20061;-73
2023/02/19 01:55:56;;;;;;;11.63;3.25;;;9.80;99.90;;;;;;4987757;28;20042;-73
2023/02/19 01:58:24;;;;;;;8.98;1.77;;;9.80;99.90;;;;;;4988307;28;20034;-72
2023/02/19 02:00:56;;;;;;;12.02;1.27;;;9.80;99.90;;;;;;4987199;28;20038;-72
2023/02/19 02:03:22;;;;;;;9.20;1.60;;;9.70;99.90;;;;;;4989502;28;20133;-72
2023/02/19 02:05:56;;;;;;;8.10;1.63;;;9.70;99.90;;;;;;4970093;28;20120;-73
2023/02/19 02:11:08;;;;;;;11.05;1.83;;;9.70;99.90;;;;;;4987163;28;20556;-73
2023/02/19 02:13:35;;;;;;;7.40;1.80;;;9.70;99.90;;;;;;4990048;28;20039;-73
2023/02/19 02:16:24;;;;;;;7.30;1.83;;;9.80;99.90;;;;;;4986980;28;20049;-74
2023/02/19 02:18:58;;;;;;;6.07;1.95;;;9.80;99.90;;;;;;4971717;28;20129;-73
2023/02/19 02:21:44;;;;;;;6.45;1.63;;;9.70;99.90;;;;;;4970037;28;20404;-73
2023/02/19 02:24:39;;;;;;;12.07;1.75;;;9.80;99.90;;;;;;4987178;28;20041;-72
2023/02/19 02:27:24;;;;;;;10.32;1.52;;;9.80;99.90;;;;;;4991893;28;20043;-72
2023/02/19 02:30:08;;;;;;;7.55;2.47;;;9.70;99.90;;;;;;4984429;28;20042;-72
2023/02/19 02:33:18;;;;;;;16.05;1.90;;;9.70;99.90;;;;;;4981060;28;20649;-72
2023/02/19 02:35:53;;;;;;;8.10;1.97;;;9.70;99.90;;;;;;4976222;28;20058;-73
2023/02/19 02:38:23;;;;;;;11.10;2.53;;;9.70;99.90;;;;;;4992786;28;20399;-74
2023/02/19 02:40:49;;;;;;;;;;;9.70;99.90;;;;;;4987208;28;20074;-73
2023/02/19 02:43:15;;;;;;;12.38;1.73;;;9.70;99.90;;;;;;4986083;28;20018;-72
2023/02/19 02:45:40;;;;;;;11.65;1.65;;;9.70;99.90;;;;;;4986878;28;20041;-73
2023/02/19 02:48:15;;;;;;;19.70;2.58;;;9.70;99.90;;;;;;4969440;28;20030;-73
2023/02/19 02:50:55;;;;;;;13.35;2.08;;;9.70;99.90;;;;;;4983605;28;20092;-73
2023/02/19 02:56:17;;;;;;;9.63;1.95;;;9.60;99.90;;;;;;4985655;28;20081;-73
2023/02/19 02:58:43;;;;;;;14.48;2.33;;;9.60;99.90;;;;;;4969114;28;20573;-74
2023/02/19 03:02:12;;;;;;;23.58;2.95;;;9.60;99.90;;;;;;4987359;28;20129;-72
2023/02/19 03:08:05;;;;;;;9.43;2.38;;;9.60;99.90;;;;;;4988296;28;20088;-73
2023/02/19 03:10:37;;;;;;;9.50;1.67;;;9.50;99.90;;;;;;4977491;28;20073;-73
2023/02/19 03:21:33;;;;;;;7.68;2.28;;;9.50;99.90;;;;;;4986767;28;20061;-73
2023/02/19 03:26:52;;;;;;;13.10;2.60;;;9.50;99.90;;;;;;4992769;28;20045;-72
2023/02/19 03:29:22;;;;;;;6.60;1.45;;;9.50;99.90;;;;;;4987303;28;20066;-73
2023/02/19 03:31:57;;;;;;;8.45;1.63;;;9.50;99.90;;;;;;4986674;28;20037;-73
2023/02/19 03:34:34;;;;;;;8.63;1.95;;;9.50;99.90;;;;;;4986370;28;20446;-74
2023/02/19 03:37:15;;;;;;;10.43;1.70;;;9.50;99.90;;;;;;4990454;28;20038;-72
2023/02/19 03:39:43;;;;;;;13.63;1.83;;;9.60;99.90;;;;;;4986945;28;20069;-72
2023/02/19 03:42:42;;;;;;;9.63;1.48;;;9.60;99.90;;;;;;4987007;28;20034;-72
2023/02/19 03:45:30;;;;;;;8.52;1.55;;;9.60;99.90;;;;;;5002787;28;20097;-72
2023/02/19 03:48:08;;;;;;;11.15;2.35;;;9.60;99.90;;;;;;4989955;28;20569;-72
2023/02/19 03:51:09;;;;;;;12.75;1.80;;;9.60;99.90;;;;;;4991100;28;20041;-73
2023/02/19 03:53:52;;;;;;;7.43;2.42;;;9.60;99.90;;;;;;4971774;28;20038;-73
2023/02/19 03:56:36;;;;;;;6.93;2.05;;;9.60;99.90;;;;;;4991535;28;20475;-73
2023/02/19 03:59:51;;;;;;;9.70;2.25;;;9.60;99.90;;;;;;4992330;28;20077;-72
2023/02/19 04:02:36;;;;;;;9.70;1.88;;;9.60;99.90;;;;;;4971065;28;20041;-73
2023/02/19 04:05:17;;;;;;;9.55;1.48;;;9.70;99.90;;;;;;4989617;28;20046;-73
2023/02/19 04:07:49;;;;;;;17.98;1.80;;;9.60;99.90;;;;;;4984093;28;20474;-74
2023/02/19 04:10:17;;;;;;;6.07;2.15;;;9.60;99.90;;;;;;4978767;28;20117;-73
2023/02/19 04:12:48;;;;;;;11.43;2.08;;;9.60;99.90;;;;;;4997039;28;20058;-73
2023/02/19 04:15:20;;;;;;;11.00;1.60;;;9.60;99.90;;;;;;4973848;28;20631;-73
2023/02/19 04:17:59;;;;;;;12.70;1.80;;;9.60;99.90;;;;;;4989137;28;20591;-74
2023/02/19 04:20:29;;;;;;;16.67;2.17;;;9.70;99.90;;;;;;4992002;28;20479;-73
2023/02/19 04:22:55;;;;;;;11.10;1.38;;;9.60;99.90;;;;;;4999958;28;20033;-72
2023/02/19 04:25:22;;;;;;;14.20;2.55;;;9.60;99.90;;;;;;4978047;28;20046;-73
2023/02/19 04:27:49;;;;;;;15.13;2.00;;;9.60;99.90;;;;;;4992415;28;20521;-72
2023/02/19 04:30:14;;;;;;;9.73;1.70;;;9.60;99.90;;;;;;4991099;28;20039;-73
2023/02/19 04:32:40;;;;;;;10.27;1.55;;;9.60;99.90;;;;;;4993634;28;20022;-73
2023/02/19 04:35:05;;;;;;;12.27;3.13;;;9.60;99.90;;;;;;4972782;28;20089;-72
2023/02/19 04:37:31;;;;;;;8.98;2.35;;;9.60;99.90;;;;;;4990746;28;20498;-72
2023/02/19 04:39:56;;;;;;;12.15;1.60;;;9.60;99.90;;;;;;4988343;28;20042;-72
2023/02/19 04:42:25;;;;;;;7.32;2.35;;;9.60;99.90;;;;;;4990448;28;20517;-73
2023/02/19 04:44:50;;;;;;;8.02;2.08;;;9.70;99.90;;;;;;4989073;28;20038;-71
2023/02/19 04:47:19;;;;;;;10.48;1.50;;;9.70;99.90;;;;;;4989409;28;20065;-73
2023/02/19 04:49:44;;;;;;;9.18;1.65;;;9.70;99.90;;;;;;4988842;28;20034;-74
2023/02/19 04:52:10;;;;;;;13.02;1.52;;;9.60;99.90;;;;;;4985590;28;20392;-72
2023/02/19 04:54:35;;;;;;;16.05;1.77;;;9.60;99.90;;;;;;4994385;28;20042;-73
2023/02/19 04:57:01;;;;;;;10.73;1.45;;;9.60;99.90;;;;;;4987631;28;20034;-73
2023/02/19 04:59:27;;;;;;;14.60;1.95;;;9.60;99.90;;;;;;4994032;28;20529;-73
2023/02/19 05:01:52;;;;;;;12.90;1.50;;;9.50;99.90;;;;;;4989257;28;20038;-74
2023/02/19 05:04:18;;;;;;;10.82;2.20;;;9.50;99.90;;;;;;4991311;28;20038;-72
2023/02/19 05:06:44;;;;;;;8.95;1.40;;;9.50;99.90;;;;;;4987940;28;20030;-74
2023/02/19 05:09:09;;;;;;;7.85;2.10;;;9.50;99.90;;;;;;4989934;28;20066;-73
2023/02/19 05:11:35;;;;;;;14.80;1.92;;;9.50;99.90;;;;;;4971562;28;20470;-73
2023/02/19 05:14:00;;;;;;;15.77;1.88;;;9.40;99.90;;;;;;4988542;28;20042;-73
2023/02/19 05:16:26;;;;;;;17.17;3.38;;;9.40;99.90;;;;;;4989184;28;20030;-72
2023/02/19 05:18:54;;;;;;;15.77;1.80;;;9.40;99.90;;;;;;4994044;28;20783;-72
2023/02/19 05:21:23;;;;;;;7.70;1.30;;;9.40;99.90;;;;;;4989446;28;20137;-73
2023/02/19 05:23:49;;;;;;;18.58;2.10;;;9.50;99.90;;;;;;4989101;28;20038;-73
2023/02/19 05:26:18;;;;;;;7.90;2.28;;;9.40;99.90;;;;;;4990829;28;20042;-73
2023/02/19 05:28:50;;;;;;;12.52;2.08;;;9.40;99.90;;;;;;4986173;28;20038;-74
2023/02/19 05:31:16;;;;;;;9.95;1.85;;;9.40;99.90;;;;;;4993305;28;20042;-73
2023/02/19 05:33:43;;;;;;;7.18;1.55;;;9.40;99.90;;;;;;4971044;28;20441;-73
2023/02/19 05:36:12;;;;;;;12.98;3.15;;;9.40;99.90;;;;;;4972095;28;20062;-72
2023/02/19 05:38:39;;;;;;;14.37;2.17;;;9.50;99.90;;;;;;4990980;28;20121;-73
2023/02/19 05:41:19;;;;;;;10.73;2.08;;;9.40;99.90;;;;;;4989125;28;20278;-72
2023/02/19 05:43:46;;;;;;;8.30;1.90;;;9.50;99.90;;;;;;4992717;28;20065;-73
2023/02/19 05:46:14;;;;;;;6.80;1.67;;;9.50;99.90;;;;;;4988277;28;20043;-72
2023/02/19 05:48:40;;;;;;;13.13;1.65;;;9.50;99.90;;;;;;4980996;28;20065;-73
2023/02/19 05:51:11;;;;;;;6.03;1.40;;;9.50;99.90;;;;;;4988387;28;20039;-72
2023/02/19 05:53:38;;;;;;;15.27;2.80;;;9.40;99.90;;;;;;4993752;28;20127;-73
2023/02/19 05:56:18;;;;;;;13.77;1.98;;;9.40;99.90;;;;;;4986628;28;20062;-72
2023/02/19 05:58:43;;;;;;;11.18;2.80;;;9.30;99.90;;;;;;4987277;28;20042;-73
2023/02/19 06:01:18;;;;;;;15.48;2.05;;;9.30;99.90;;;;;;4970520;28;20053;-73
2023/02/19 06:03:46;;;;;;;6.95;2.10;;;9.30;99.90;;;;;;4983018;28;20065;-73
2023/02/19 06:06:16;;;;;;;9.88;2.08;;;9.30;99.90;;;;;;4986343;28;20042;-72
2023/02/19 06:08:42;;;;;;;9.00;1.40;;;9.30;99.90;;;;;;4988175;28;20053;-73
2023/02/19 06:11:08;;;;;;;7.70;1.92;;;9.40;99.90;;;;;;4993738;28;20388;-72
2023/02/19 06:13:34;;;;;;;8.20;1.80;;;9.30;99.90;;;;;;4998594;28;20034;-72
2023/02/19 06:16:03;;;;;;;7.10;1.73;;;9.30;99.90;;;;;;4997692;28;20037;-72
2023/02/19 06:18:29;;;;;;;12.07;1.55;;;9.40;99.90;;;;;;4966828;28;20158;-74
2023/02/19 06:21:04;;;;;;;10.43;3.00;;;9.40;99.90;;;;;;4987538;28;20072;-73
2023/02/19 06:23:30;;;;;;;12.18;1.77;;;9.40;99.90;;;;;;4987711;28;20109;-72
2023/02/19 06:26:22;;;;;;;12.38;2.70;;;9.50;99.90;;;;;;4988550;28;20495;-73
2023/02/19 06:28:50;;;;;;;8.77;1.52;;;9.40;99.90;;;;;;4985018;28;20525;-73
2023/02/19 06:31:16;;;;;;;13.38;2.47;;;9.40;99.90;;;;;;4987942;28;20045;-72
2023/02/19 06:33:42;;;;;;;11.45;1.90;;;9.40;99.90;;;;;;4987801;28;20037;-72
2023/02/19 06:36:14;;;;;;;10.52;2.45;;;9.30;99.90;;;;;;4970304;28;20031;-73
2023/02/19 06:38:40;;;;;;;11.65;2.75;;;9.30;99.90;;;;;;4992498;28;20026;-73
2023/02/19 06:41:07;;;;;;;12.07;2.88;;;9.20;99.90;;;;;;4972172;28;20054;-74
2023/02/19 06:43:33;;;;;;;22.85;2.45;;;9.20;99.90;;;;;;4987292;28;20042;-73
2023/02/19 06:46:00;;;;;;;4.82;1.85;;;9.30;99.90;;;;;;4969964;28;20030;-73
2023/02/19 06:48:29;;;;;;;5.22;1.92;;;9.20;99.90;;;;;;4972219;28;20038;-74
2023/02/19 06:50:55;;;;;;;15.88;2.53;;;9.30;99.90;;;;;;4985930;28;20096;-74
2023/02/19 06:53:21;;;;;;;5.50;1.73;;;9.20;99.90;;;;;;4991447;28;20430;-73
2023/02/19 06:56:05;;;;;;;6.30;1.88;;;9.20;99.90;;;;;;4990303;28;20030;-73
2023/02/19 06:58:31;;;;;;;9.02;1.70;;;9.20;99.90;;;;;;4988155;28;20042;-73
2023/02/19 07:00:57;;;;;;;17.30;2.38;;;9.20;99.90;;;;;;4998801;28;20041;-73
2023/02/19 07:03:23;;;;;;;7.57;1.98;;;9.20;99.90;;;;;;4986710;28;20039;-73
2023/02/19 07:05:48;;;;;;;5.20;1.75;;;9.20;99.90;;;;;;4993242;28;20026;-74
2023/02/19 07:08:16;;;;;;;8.00;2.15;;;9.20;99.90;;;;;;4989972;28;20219;-73
2023/02/19 07:10:42;;;;;;;11.68;2.53;;;9.20;99.90;;;;;;4996338;28;20033;-73
2023/02/19 07:13:08;;;;;;;6.68;2.00;;;9.20;99.90;;;;;;4973389;28;20038;-72
2023/02/19 07:15:33;;;;;;;12.25;2.00;;;9.20;99.90;;;;;;4989937;28;20118;-74
2023/02/19 07:17:59;;;;;;;11.45;2.30;;;9.20;99.90;;;;;;4981159;28;20390;-72
2023/02/19 07:20:24;;;;;;;13.30;2.97;;;9.20;99.90;;;;;;4991055;28;20034;-73
2023/02/19 07:22:50;;;;;;;8.70;2.13;;;9.20;99.90;;;;;;4990229;28;20039;-73
2023/02/19 07:25:16;;;;;;;15.20;2.83;;;9.20;99.90;;;;;;4990425;28;20038;-73
2023/02/19 07:27:41;;;;;;;14.82;2.60;;;9.20;99.90;;;;;;4977224;28;20040;-72
2023/02/19 07:30:07;;;;;;;10.15;2.05;;;9.20;99.90;;;;;;4994743;28;20038;-72
2023/02/19 07:32:33;;;;;;;13.77;3.53;;;9.20;99.90;;;;;;4997847;28;20034;-74
2023/02/19 07:34:58;;;;;;;10.30;2.45;;;9.30;99.90;;;;;;4994039;28;20045;-73
2023/02/19 07:37:24;;;;;;;11.43;3.03;;;9.30;99.90;;;;;;4994096;28;20078;-74
2023/02/19 07:39:50;;;;;;;11.75;1.80;;;9.30;99.90;;;;;;4976470;28;20088;-72
2023/02/19 07:42:15;;;;;;;17.77;2.88;;;9.20;99.90;;;;;;4999108;28;20053;-73
2023/02/19 07:44:41;;;;;;;11.50;2.03;;;9.30;99.90;;;;;;4990713;28;20440;-73
2023/02/19 07:47:06;;;;;;;9.27;2.42;;;9.20;99.90;;;;;;4997996;28;20042;-74
2023/02/19 07:49:32;;;;;;;7.43;1.98;;;9.20;99.90;;;;;;4973057;28;20049;-74
2023/02/19 07:51:58;;;;;;;12.02;2.30;;;9.20;99.90;;;;;;4992904;28;20030;-74
2023/02/19 07:54:24;;;;;;;11.90;2.60;;;9.30;99.90;;;;;;4972188;28;20663;-75
2023/02/19 07:56:49;;;;;;;6.43;1.65;;;9.30;99.90;;;;;;4989487;28;20062;-75
2023/02/19 07:59:18;;;;;;;8.65;1.80;;;9.30;99.90;;;;;;4991647;28;20038;-73
2023/02/19 08:04:28;;;;;;;5.43;2.10;;;9.20;99.90;;;;;;4989012;28;20033;-73
2023/02/19 08:06:56;;;;;;;3.03;1.27;;;9.30;99.90;;;;;;4972136;28;20038;-72
2023/02/19 08:09:22;;;;;;;7.80;1.40;;;9.30;99.90;;;;;;4989249;28;20042;-73
2023/02/19 08:14:31;;;;;;;9.25;2.47;;;9.20;99.90;;;;;;4988546;28;20055;-73
2023/02/19 08:16:57;;;;;;;16.58;2.40;;;9.20;99.90;;;;;;4975234;28;20030;-74
2023/02/19 08:19:23;;;;;;;10.02;2.17;;;9.20;99.90;;;;;;4972741;28;20038;-73
2023/02/19 08:21:49;;;;;;;8.40;2.22;;;9.20;99.90;;;;;;4989365;28;20034;-73
2023/02/19 08:24:15;;;;;;;8.90;2.58;;;9.20;99.90;;;;;;4976935;28;20034;-73
2023/02/19 08:26:40;;;;;;;10.02;3.53;;;9.30;99.90;;;;;;4993776;28;20040;-73
2023/02/19 08:29:06;;;;;;;10.48;2.83;;;9.30;99.90;;;;;;4991711;28;20042;-73
2023/02/19 08:31:33;;;;;;;15.75;3.53;;;9.20;99.90;;;;;;4988213;28;20499;-73
2023/02/19 08:33:58;;;;;;;15.65;2.65;;;9.30;99.90;;;;;;4970838;28;20038;-73
2023/02/19 08:36:25;;;;;;;12.60;2.90;;;9.30;99.90;;;;;;4988403;28;20038;-74
2023/02/19 08:38:50;;;;;;;9.30;2.55;;;9.30;99.90;;;;;;5000037;28;20046;-73
2023/02/19 08:41:16;;;;;;;17.60;3.15;;;9.30;99.90;;;;;;4988504;28;20690;-73
2023/02/19 08:43:44;;;;;;;8.02;2.00;;;9.40;99.90;;;;;;4988461;28;20483;-73
2023/02/19 08:46:11;;;;;;;39.60;4.15;;;9.40;99.90;;;;;;4986623;28;20061;-73
2023/02/19 08:48:37;;;;;;;10.00;2.33;;;9.40;99.90;;;;;;4993216;28;20026;-74
2023/02/19 08:51:07;;;;;;;18.13;2.55;;;9.40;99.90;;;;;;4981021;28;20101;-75
2023/02/19 08:53:33;;;;;;;10.75;2.83;;;9.40;99.90;;;;;;4999497;28;20072;-73
2023/02/19 08:56:08;;;;;;;11.32;2.22;;;9.50;99.90;;;;;;4995156;28;20137;-73
2023/02/19 08:58:34;;;;;;;15.45;3.08;;;9.50;99.90;;;;;;4998625;28;20018;-73
2023/02/19 09:01:00;;;;;;;12.57;2.85;;;9.50;99.90;;;;;;4995580;28;20457;-75
2023/02/19 09:03:26;;;;;;;11.05;2.10;;;9.50;99.90;;;;;;4977614;28;20050;-74
2023/02/19 09:05:52;;;;;;;8.20;1.77;;;9.60;99.90;;;;;;4973542;28;20454;-73
2023/02/19 09:08:18;;;;;;;8.05;1.75;;;9.60;99.90;;;;;;4988467;28;20066;-73
2023/02/19 09:10:43;;;;;;;16.08;3.35;;;9.60;99.90;;;;;;4993495;28;20089;-74
2023/02/19 09:13:09;;;;;;;18.10;2.30;;;9.60;99.90;;;;;;4978017;28;20070;-73
2023/02/19 09:15:37;;;;;;;10.90;2.80;;;9.70;99.90;;;;;;4988327;28;20031;-72
2023/02/19 09:18:02;;;;;;;14.45;2.58;;;9.80;99.90;;;;;;4970511;28;20034;-73
2023/02/19 09:20:28;;;;;;;15.35;2.13;;;9.80;99.90;;;;;;4987999;28;20026;-73
2023/02/19 09:22:58;;;;;;;15.07;2.13;;;9.90;99.90;;;;;;4989013;28;20038;-73
2023/02/19 09:25:24;;;;;;;4.97;2.00;;;9.90;99.90;;;;;;4987909;28;20038;-74
2023/02/19 09:27:56;;;;;;;6.18;1.90;;;9.90;99.90;;;;;;4990899;28;20449;-73
2023/02/19 09:30:22;;;;;;;11.65;1.63;;;9.90;99.90;;;;;;4989877;28;20399;-74
2023/02/19 09:32:47;;;;;;;7.28;2.28;;;9.90;99.90;;;;;;4991748;28;20564;-74
2023/02/19 09:35:13;;;;;;;8.65;1.63;;;9.90;99.90;;;;;;4991960;28;20042;-73
2023/02/19 09:37:38;;;;;;;17.20;2.33;;;9.90;99.90;;;;;;4996286;28;20038;-74
2023/02/19 09:40:04;;;;;;;11.55;1.95;;;9.90;99.90;;;;;;4986358;28;20042;-74
2023/02/19 09:42:31;;;;;;;14.48;1.92;;;10.00;99.90;;;;;;4969718;28;20057;-73
2023/02/19 09:44:59;;;;;;;6.07;1.92;;;10.00;99.90;;;;;;4986975;28;20042;-73
2023/02/19 09:47:34;;;;;;;17.10;2.55;;;9.90;99.90;;;;;;4971295;28;20042;-73
2023/02/19 09:50:06;;;;;;;12.30;2.13;;;9.90;99.90;;;;;;4985568;28;20058;-73
2023/02/19 09:52:50;;;;;;;9.02;2.05;;;9.90;99.90;;;;;;4987014;28;20042;-74
2023/02/19 09:55:24;;;;;;;10.27;1.38;;;9.90;99.90;;;;;;4986124;28;20092;-73
2023/02/19 09:57:50;;;;;;;12.13;2.92;;;9.80;99.90;;;;;;4970384;28;20050;-73
2023/02/19 10:00:28;;;;;;;9.05;2.00;;;9.80;99.90;;;;;;4998776;28;20635;-73
2023/02/19 10:03:03;;;;;;;12.93;1.92;;;9.80;99.90;;;;;;4982753;28;20047;-73
2023/02/19 10:05:29;;;;;;;11.65;1.88;;;9.80;99.90;;;;;;4987356;28;21009;-73
2023/02/19 10:07:55;;;;;;;9.82;2.08;;;9.80;99.90;;;;;;4970376;28;20034;-73
2023/02/19 10:10:32;;;;;;;11.23;2.42;;;9.80;99.90;;;;;;4988389;28;20430;-73
2023/02/19 10:13:13;;;;;;;18.20;2.55;;;9.70;99.90;;;;;;4992767;28;20042;-73
2023/02/19 10:15:48;;;;;;;10.27;1.48;;;9.80;99.90;;;;;;4985300;28;20026;-73
2023/02/19 10:18:20;;;;;;;13.85;1.67;;;9.80;99.90;;;;;;4983569;28;20046;-74
2023/02/19 10:20:47;;;;;;;10.85;1.85;;;9.80;99.90;;;;;;4971970;28;20140;-74
2023/02/19 10:23:14;;;;;;;14.73;2.35;;;9.90;99.90;;;;;;4994590;28;20034;-73
2023/02/19 10:25:58;;;;;;;14.15;3.30;;;9.80;99.90;;;;;;4989463;28;20030;-74
2023/02/19 10:28:32;;;;;;;6.85;1.63;;;9.80;99.90;;;;;;4986790;28;20034;-74
2023/02/19 10:31:00;;;;;;;8.23;1.98;;;9.80;99.90;;;;;;4992050;28;20041;-73
2023/02/19 10:33:27;;;;;;;8.88;1.40;;;9.70;99.90;;;;;;4993609;28;20433;-74
2023/02/19 10:35:58;;;;;;;6.45;1.48;;;9.70;99.90;;;;;;4987456;28;20031;-73
2023/02/19 10:38:37;;;;;;;7.72;1.92;;;9.70;99.90;;;;;;4989364;28;20129;-74
2023/02/19 10:41:05;;;;;;;9.13;1.35;;;9.70;99.90;;;;;;4995335;28;20040;-73
2023/02/19 10:43:35;;;;;;;8.85;2.22;;;9.70;99.90;;;;;;4987885;28;20117;-74
2023/02/19 10:46:17;;;;;;;8.85;1.30;;;9.70;99.90;;;;;;4987403;28;20038;-74
2023/02/19 10:48:54;;;;;;;6.63;1.30;;;9.70;99.90;;;;;;4966119;28;20160;-73
2023/02/19 10:51:20;;;;;;;11.45;1.92;;;9.70;99.90;;;;;;4976260;28;20394;-74
2023/02/19 10:53:48;;;;;;;5.30;1.42;;;9.80;99.90;;;;;;4988912;28;20360;-73
2023/02/19 10:56:23;;;;;;;13.18;1.38;;;9.90;99.90;;;;;;4989023;28;20058;-75
2023/02/19 10:58:50;;;;;;;6.07;1.10;;;9.80;99.90;;;;;;4981667;28;20407;-74
2023/02/19 11:01:18;;;;;;;9.27;1.77;;;9.80;99.90;;;;;;4989280;28;20505;-73
2023/02/19 11:03:52;;;;;;;3.72;0.80;;;9.80;99.90;;;;;;4999017;28;20131;-73
2023/02/19 11:06:25;;;;;;;6.55;1.45;;;9.80;99.90;;;;;;4989472;28;20615;-73
2023/02/19 11:08:59;;;;;;;3.22;1.00;;;9.70;99.90;;;;;;4993539;28;20457;-74
2023/02/19 11:11:34;;;;;;;7.10;2.05;;;9.80;99.90;;;;;;4987333;28;20073;-74
2023/02/19 11:14:23;;;;;;;6.45;1.67;;;9.80;99.90;;;;;;4987229;28;20062;-74
2023/02/19 11:16:51;;;;;;;4.97;0.95;;;9.80;99.90;;;;;;4986251;28;20137;-73
2023/02/19 11:19:27;;;;;;;6.93;1.73;;;9.80;99.90;;;;;;4970202;28;20277;-73
2023/02/19 11:21:54;;;;;;;5.60;0.90;;;9.80;99.90;;;;;;4982360;28;20050;-74
2023/02/19 11:24:36;;;;;;;4.72;0.85;;;9.80;99.90;;;;;;4967131;28;20041;-73
2023/02/19 11:27:15;;;;;;;2.78;0.77;;;9.80;99.90;;;;;;4984295;28;20497;-74
2023/02/19 11:29:40;;;;;;;2.25;0.80;;;9.80;99.90;;;;;;4998414;28;20058;-73
2023/02/19 11:32:28;;;;;;;4.78;0.80;;;9.80;99.90;;;;;;4966564;28;20908;-74
2023/02/19 11:35:13;;;;;;;4.50;0.60;;;9.80;99.90;;;;;;4998267;28;20491;-73
2023/02/19 11:38:01;;;;;;;3.83;1.15;;;9.80;99.90;;;;;;4985248;28;20569;-74
2023/02/19 11:40:37;;;;;;;7.68;1.17;;;9.80;99.90;;;;;;4984784;28;20057;-73
2023/02/19 11:43:15;;;;;;;2.20;0.65;;;9.80;99.90;;;;;;4984073;28;20038;-73
2023/02/19 11:46:08;;;;;;;1.30;0.52;;;9.70;99.90;;;;;;4983970;28;20027;-73
2023/02/19 11:48:53;;;;;;;2.30;1.23;;;9.50;99.90;;;;;;4981771;28;20125;-73
2023/02/19 11:51:34;;;;;;;1.80;1.05;;;9.50;99.90;;;;;;4984226;28;20129;-73
2023/02/19 11:54:07;;;;;;;2.67;0.47;;;9.40;99.90;;;;;;4958814;28;20499;-73
2023/02/19 11:56:36;;;;;;;0.73;0.50;;;9.50;99.90;;;;;;4976602;28;20081;-73
2023/02/19 11:59:11;;;;;;;2.45;0.68;;;9.50;99.90;;;;;;4971297;28;20077;-72
2023/02/19 12:01:57;;;;;;;1.80;0.65;;;9.50;99.90;;;;;;4978521;28;20067;-74
2023/02/19 12:04:41;;;;;;;1.92;0.80;;;9.50;99.90;;;;;;5006854;28;20045;-73
2023/02/19 12:07:22;;;;;;;1.60;1.02;;;9.40;99.90;;;;;;4975315;28;20775;-73
2023/02/19 12:09:57;;;;;;;3.05;0.70;;;9.40;99.90;;;;;;4968934;28;20026;-73
2023/02/19 12:12:26;;;;;;;1.23;0.40;;;9.30;99.90;;;;;;4980073;28;20579;-73
2023/02/19 12:15:07;;;;;;;2.22;0.80;;;9.30;99.90;;;;;;4975538;28;20373;-72
2023/02/19 12:17:45;;;;;;;1.65;0.73;;;9.30;99.90;;;;;;4968436;28;20046;-73
2023/02/19 12:20:29;;;;;;;2.42;1.00;;;9.40;99.90;;;;;;4963511;28;20035;-73
2023/02/19 12:23:06;;;;;;;2.05;0.70;;;9.40;99.90;;;;;;4990913;28;20068;-73
2023/02/19 12:25:51;;;;;;;3.33;0.90;;;9.50;99.90;;;;;;5005843;28;20073;-73
2023/02/19 12:28:38;;;;;;;3.00;0.68;;;9.50;99.90;;;;;;4986994;28;20321;-73
2023/02/19 12:31:21;;;;;;;1.10;0.70;;;9.50;99.90;;;;;;5004187;28;20045;-74
2023/02/19 12:34:01;;;;;;;3.63;0.73;;;9.60;99.90;;;;;;4998236;28;20034;-76
2023/02/19 12:36:42;;;;;;;2.28;0.80;;;9.60;99.90;;;;;;4991187;28;20494;-73
2023/02/19 12:39:15;;;;;;;;;;;9.70;99.90;;;;;;4990340;28;20035;-73
2023/02/19 12:41:56;;;;;;;2.80;1.25;;;9.70;99.90;;;;;;4992111;28;19924;-72
2023/02/19 12:44:33;;;;;;;2.50;1.13;;;9.70;99.90;;;;;;4994423;28;20061;-73
2023/02/19 12:47:02;;;;;;;2.05;0.90;;;9.70;99.90;;;;;;5006184;28;20069;-73
2023/02/19 12:49:42;;;;;;;2.08;1.00;;;9.60;99.90;;;;;;4998684;28;20835;-72
2023/02/19 12:52:17;;;;;;;2.38;1.15;;;9.50;99.90;;;;;;4988600;28;20061;-73
2023/02/19 12:54:51;;;;;;;2.80;0.90;;;9.50;99.90;;;;;;4994921;28;20402;-73
2023/02/19 12:57:33;;;;;;;1.92;1.17;;;9.30;99.90;;;;;;4976215;28;20414;-73
2023/02/19 13:00:06;;;;;;;2.45;1.00;;;9.30;99.90;;;;;;4997908;28;20027;-73
2023/02/19 13:02:52;;;;;;;2.47;0.95;;;9.30;99.90;;;;;;4997705;28;20046;-74
2023/02/19 13:05:21;;;;;;;3.40;1.05;;;9.20;99.90;;;;;;4996471;28;20084;-73
2023/02/19 13:08:12;;;;;;;3.47;1.10;;;9.10;99.90;;;;;;4993990;28;20051;-74
2023/02/19 13:11:10;;;;;;;3.20;0.93;;;9.00;99.90;;;;;;4993485;28;20049;-72
2023/02/19 13:13:45;;;;;;;3.20;1.40;;;8.90;99.90;;;;;;4983836;28;20037;-73
2023/02/19 13:16:16;;;;;;;1.80;0.90;;;8.90;99.90;;;;;;4979823;28;20402;-73
2023/02/19 13:18:49;;;;;;;3.55;1.00;;;8.90;99.90;;;;;;4997184;28;20052;-73
2023/02/19 13:24:21;;;;;;;3.33;1.30;;;8.70;99.90;;;;;;4985840;28;20057;-73
2023/02/19 13:26:58;;;;;;;4.30;1.58;;;8.60;99.90;;;;;;4996324;28;20390;-73
2023/02/19 13:29:49;;;;;;;3.80;1.25;;;8.60;99.90;;;;;;4991741;28;21565;-73
2023/02/19 13:32:23;;;;;;;3.15;1.45;;;8.60;99.90;;;;;;4988542;28;20035;-73
2023/02/19 13:35:20;;;;;;;1.85;0.90;;;8.60;99.90;;;;;;4990812;28;20092;-73
2023/02/19 13:37:47;;;;;;;2.30;0.98;;;8.60;99.90;;;;;;4971510;28;20077;-73
2023/02/19 13:40:41;;;;;;;2.67;1.30;;;8.60;99.90;;;;;;4975561;28;20049;-73
2023/02/19 13:43:29;;;;;;;4.25;0.90;;;8.50;99.90;;;;;;4981282;28;20053;-73